sensor_id;sensor_type;location;lat;lon;timestamp;P1;durP1;ratioP1;P2;durP2;ratioP2
15929;SDS011;8064;51.142;4.780;2022-08-11T00:05:10;3.63;;;1.58;;
15929;SDS011;8064;51.142;4.780;2022-08-11T00:07:42;4.18;;;1.80;;
15929;SDS011;8064;51.142;4.780;2022-08-11T00:10:12;1.88;;;1.48;;
15929;SDS011;8064;51.142;4.780;2022-08-11T00:12:40;2.63;;;1.70;;
15929;SDS011;8064;51.142;4.780;2022-08-11T00:15:07;1.80;;;1.65;;
15929;SDS011;8064;51.142;4.780;2022-08-11T00:17:34;2.63;;;1.60;;
15929;SDS011;8064;51.142;4.780;2022-08-11T00:20:03;4.10;;;1.80;;
15929;SDS011;8064;51.142;4.780;2022-08-11T00:22:33;2.28;;;1.65;;
15929;SDS011;8064;51.142;4.780;2022-08-11T00:25:13;2.65;;;1.35;;
15929;SDS011;8064;51.142;4.780;2022-08-11T00:27:42;2.45;;;1.60;;
15929;SDS011;8064;51.142;4.780;2022-08-11T00:30:08;1.60;;;1.50;;
15929;SDS011;8064;51.142;4.780;2022-08-11T00:32:36;3.42;;;1.70;;
15929;SDS011;8064;51.142;4.780;2022-08-11T00:35:03;4.35;;;2.00;;
15929;SDS011;8064;51.142;4.780;2022-08-11T00:37:32;2.58;;;2.10;;
15929;SDS011;8064;51.142;4.780;2022-08-11T00:39:59;3.28;;;1.45;;
15929;SDS011;8064;51.142;4.780;2022-08-11T00:45:26;3.50;;;1.73;;
15929;SDS011;8064;51.142;4.780;2022-08-11T01:16:55;2.60;;;2.10;;
15929;SDS011;8064;51.142;4.780;2022-08-11T01:30:57;3.05;;;1.90;;
15929;SDS011;8064;51.142;4.780;2022-08-11T01:33:52;1.92;;;1.80;;
15929;SDS011;8064;51.142;4.780;2022-08-11T01:39:30;5.70;;;2.00;;
15929;SDS011;8064;51.142;4.780;2022-08-11T01:48:34;3.03;;;1.90;;
15929;SDS011;8064;51.142;4.780;2022-08-11T01:54:14;3.20;;;1.83;;
15929;SDS011;8064;51.142;4.780;2022-08-11T01:56:52;4.57;;;2.13;;
15929;SDS011;8064;51.142;4.780;2022-08-11T01:59:35;3.43;;;1.97;;
15929;SDS011;8064;51.142;4.780;2022-08-11T02:02:26;3.00;;;1.90;;
15929;SDS011;8064;51.142;4.780;2022-08-11T02:07:58;3.30;;;2.00;;
15929;SDS011;8064;51.142;4.780;2022-08-11T02:16:28;4.10;;;2.10;;
15929;SDS011;8064;51.142;4.780;2022-08-11T02:28:20;2.67;;;2.17;;
15929;SDS011;8064;51.142;4.780;2022-08-11T02:34:14;4.30;;;2.27;;
15929;SDS011;8064;51.142;4.780;2022-08-11T02:45:15;5.73;;;2.20;;
15929;SDS011;8064;51.142;4.780;2022-08-11T02:47:59;3.97;;;2.17;;
15929;SDS011;8064;51.142;4.780;2022-08-11T02:50:55;3.47;;;2.00;;
15929;SDS011;8064;51.142;4.780;2022-08-11T03:05:20;3.70;;;2.30;;
15929;SDS011;8064;51.142;4.780;2022-08-11T03:11:18;3.67;;;2.20;;
15929;SDS011;8064;51.142;4.780;2022-08-11T03:17:34;2.53;;;2.17;;
15929;SDS011;8064;51.142;4.780;2022-08-11T03:25:45;7.83;;;2.37;;
15929;SDS011;8064;51.142;4.780;2022-08-11T03:28:42;5.03;;;2.73;;
15929;SDS011;8064;51.142;4.780;2022-08-11T03:31:21;4.90;;;2.43;;
15929;SDS011;8064;51.142;4.780;2022-08-11T03:33:54;4.00;;;2.60;;
15929;SDS011;8064;51.142;4.780;2022-08-11T03:36:33;3.63;;;2.37;;
15929;SDS011;8064;51.142;4.780;2022-08-11T03:44:49;4.27;;;2.40;;
15929;SDS011;8064;51.142;4.780;2022-08-11T03:47:56;7.07;;;2.83;;
15929;SDS011;8064;51.142;4.780;2022-08-11T04:08:16;3.20;;;2.20;;
15929;SDS011;8064;51.142;4.780;2022-08-11T04:16:57;3.77;;;2.50;;
15929;SDS011;8064;51.142;4.780;2022-08-11T04:19:48;6.13;;;2.10;;
15929;SDS011;8064;51.142;4.780;2022-08-11T04:34:04;6.87;;;2.87;;
15929;SDS011;8064;51.142;4.780;2022-08-11T04:48:34;4.47;;;2.70;;
15929;SDS011;8064;51.142;4.780;2022-08-11T04:58:12;10.73;;;2.90;;
15929;SDS011;8064;51.142;4.780;2022-08-11T05:04:10;5.50;;;3.10;;
15929;SDS011;8064;51.142;4.780;2022-08-11T05:07:39;5.60;;;2.57;;
15929;SDS011;8064;51.142;4.780;2022-08-11T05:10:32;4.20;;;2.70;;
15929;SDS011;8064;51.142;4.780;2022-08-11T05:13:23;6.60;;;2.70;;
15929;SDS011;8064;51.142;4.780;2022-08-11T05:16:12;3.73;;;2.73;;
15929;SDS011;8064;51.142;4.780;2022-08-11T05:19:01;6.57;;;3.13;;
15929;SDS011;8064;51.142;4.780;2022-08-11T05:21:51;5.90;;;3.17;;
15929;SDS011;8064;51.142;4.780;2022-08-11T05:24:41;5.20;;;3.50;;
15929;SDS011;8064;51.142;4.780;2022-08-11T05:30:55;8.97;;;3.37;;
15929;SDS011;8064;51.142;4.780;2022-08-11T05:36:52;4.20;;;3.03;;
15929;SDS011;8064;51.142;4.780;2022-08-11T05:39:25;8.80;;;4.17;;
15929;SDS011;8064;51.142;4.780;2022-08-11T05:42:13;6.83;;;3.60;;
15929;SDS011;8064;51.142;4.780;2022-08-11T05:45:03;5.57;;;3.60;;
15929;SDS011;8064;51.142;4.780;2022-08-11T05:47:52;4.70;;;3.30;;
15929;SDS011;8064;51.142;4.780;2022-08-11T05:50:37;6.47;;;3.60;;
15929;SDS011;8064;51.142;4.780;2022-08-11T05:53:22;7.37;;;3.30;;
15929;SDS011;8064;51.142;4.780;2022-08-11T05:56:07;8.90;;;3.83;;
15929;SDS011;8064;51.142;4.780;2022-08-11T05:58:52;5.37;;;3.60;;
15929;SDS011;8064;51.142;4.780;2022-08-11T06:01:23;8.10;;;4.13;;
15929;SDS011;8064;51.142;4.780;2022-08-11T06:03:52;8.17;;;3.90;;
15929;SDS011;8064;51.142;4.780;2022-08-11T06:06:48;5.87;;;3.93;;
15929;SDS011;8064;51.142;4.780;2022-08-11T06:09:35;7.18;;;3.90;;
15929;SDS011;8064;51.142;4.780;2022-08-11T06:12:04;8.40;;;3.90;;
15929;SDS011;8064;51.142;4.780;2022-08-11T06:14:33;6.43;;;3.88;;
15929;SDS011;8064;51.142;4.780;2022-08-11T06:17:06;5.13;;;3.93;;
15929;SDS011;8064;51.142;4.780;2022-08-11T06:19:34;8.05;;;4.00;;
15929;SDS011;8064;51.142;4.780;2022-08-11T06:22:04;8.73;;;4.10;;
15929;SDS011;8064;51.142;4.780;2022-08-11T06:24:32;7.75;;;3.78;;
15929;SDS011;8064;51.142;4.780;2022-08-11T06:27:00;5.40;;;4.15;;
15929;SDS011;8064;51.142;4.780;2022-08-11T06:29:30;5.78;;;4.13;;
15929;SDS011;8064;51.142;4.780;2022-08-11T06:31:59;9.90;;;4.25;;
15929;SDS011;8064;51.142;4.780;2022-08-11T06:34:29;5.32;;;3.92;;
15929;SDS011;8064;51.142;4.780;2022-08-11T06:37:02;7.30;;;4.05;;
15929;SDS011;8064;51.142;4.780;2022-08-11T07:34:44;5.70;;;3.97;;
15929;SDS011;8064;51.142;4.780;2022-08-11T07:37:16;7.85;;;3.53;;
15929;SDS011;8064;51.142;4.780;2022-08-11T07:39:44;7.47;;;3.95;;
15929;SDS011;8064;51.142;4.780;2022-08-11T07:42:13;7.82;;;3.97;;
15929;SDS011;8064;51.142;4.780;2022-08-11T07:44:41;7.47;;;3.63;;
15929;SDS011;8064;51.142;4.780;2022-08-11T07:47:26;8.02;;;3.92;;
15929;SDS011;8064;51.142;4.780;2022-08-11T07:50:12;9.63;;;3.17;;
15929;SDS011;8064;51.142;4.780;2022-08-11T07:52:58;10.60;;;3.80;;
15929;SDS011;8064;51.142;4.780;2022-08-11T07:55:25;8.10;;;3.33;;
15929;SDS011;8064;51.142;4.780;2022-08-11T07:57:52;5.55;;;3.72;;
15929;SDS011;8064;51.142;4.780;2022-08-11T08:03:41;6.13;;;3.38;;
15929;SDS011;8064;51.142;4.780;2022-08-11T08:06:27;5.72;;;3.20;;
15929;SDS011;8064;51.142;4.780;2022-08-11T08:09:14;3.60;;;2.72;;
15929;SDS011;8064;51.142;4.780;2022-08-11T08:12:01;7.18;;;3.17;;
15929;SDS011;8064;51.142;4.780;2022-08-11T08:14:46;5.90;;;2.90;;
15929;SDS011;8064;51.142;4.780;2022-08-11T08:17:31;6.90;;;2.70;;
15929;SDS011;8064;51.142;4.780;2022-08-11T08:20:19;8.63;;;2.92;;
15929;SDS011;8064;51.142;4.780;2022-08-11T08:25:29;7.10;;;2.67;;
15929;SDS011;8064;51.142;4.780;2022-08-11T08:27:58;8.77;;;2.60;;
15929;SDS011;8064;51.142;4.780;2022-08-11T08:30:25;4.18;;;2.35;;
15929;SDS011;8064;51.142;4.780;2022-08-11T08:33:12;7.75;;;2.72;;
15929;SDS011;8064;51.142;4.780;2022-08-11T08:35:42;3.45;;;2.55;;
15929;SDS011;8064;51.142;4.780;2022-08-11T08:38:09;4.68;;;2.83;;
15929;SDS011;8064;51.142;4.780;2022-08-11T08:40:37;7.25;;;2.58;;
15929;SDS011;8064;51.142;4.780;2022-08-11T08:43:07;5.88;;;2.83;;
15929;SDS011;8064;51.142;4.780;2022-08-11T08:45:35;6.47;;;2.92;;
15929;SDS011;8064;51.142;4.780;2022-08-11T08:48:03;3.88;;;2.65;;
15929;SDS011;8064;51.142;4.780;2022-08-11T08:50:34;4.80;;;2.50;;
15929;SDS011;8064;51.142;4.780;2022-08-11T08:53:23;6.63;;;3.05;;
15929;SDS011;8064;51.142;4.780;2022-08-11T08:55:57;5.63;;;2.70;;
15929;SDS011;8064;51.142;4.780;2022-08-11T08:58:25;3.72;;;2.58;;
15929;SDS011;8064;51.142;4.780;2022-08-11T09:00:52;5.18;;;3.17;;
15929;SDS011;8064;51.142;4.780;2022-08-11T09:03:19;6.22;;;2.85;;
15929;SDS011;8064;51.142;4.780;2022-08-11T09:05:46;3.13;;;2.47;;
15929;SDS011;8064;51.142;4.780;2022-08-11T09:08:13;5.03;;;2.60;;
15929;SDS011;8064;51.142;4.780;2022-08-11T09:10:44;6.07;;;2.65;;
15929;SDS011;8064;51.142;4.780;2022-08-11T09:13:32;7.90;;;2.80;;
15929;SDS011;8064;51.142;4.780;2022-08-11T09:15:58;7.22;;;2.80;;
15929;SDS011;8064;51.142;4.780;2022-08-11T09:18:25;4.50;;;2.60;;
15929;SDS011;8064;51.142;4.780;2022-08-11T09:20:51;4.30;;;2.60;;
15929;SDS011;8064;51.142;4.780;2022-08-11T09:23:17;6.32;;;3.00;;
15929;SDS011;8064;51.142;4.780;2022-08-11T09:26:02;6.05;;;3.45;;
15929;SDS011;8064;51.142;4.780;2022-08-11T09:28:46;8.23;;;2.83;;
15929;SDS011;8064;51.142;4.780;2022-08-11T09:31:14;3.60;;;2.70;;
15929;SDS011;8064;51.142;4.780;2022-08-11T09:33:41;8.75;;;3.13;;
15929;SDS011;8064;51.142;4.780;2022-08-11T09:36:08;5.05;;;2.65;;
15929;SDS011;8064;51.142;4.780;2022-08-11T09:38:54;4.47;;;2.58;;
15929;SDS011;8064;51.142;4.780;2022-08-11T09:41:39;5.45;;;2.63;;
15929;SDS011;8064;51.142;4.780;2022-08-11T09:44:08;6.32;;;2.75;;
15929;SDS011;8064;51.142;4.780;2022-08-11T09:46:53;3.33;;;2.63;;
15929;SDS011;8064;51.142;4.780;2022-08-11T09:49:23;3.95;;;2.47;;
15929;SDS011;8064;51.142;4.780;2022-08-11T09:51:50;3.75;;;2.80;;
15929;SDS011;8064;51.142;4.780;2022-08-11T09:54:17;5.25;;;2.63;;
15929;SDS011;8064;51.142;4.780;2022-08-11T09:56:44;7.15;;;3.20;;
15929;SDS011;8064;51.142;4.780;2022-08-11T09:59:29;4.18;;;2.53;;
15929;SDS011;8064;51.142;4.780;2022-08-11T10:01:57;5.47;;;2.88;;
15929;SDS011;8064;51.142;4.780;2022-08-11T10:04:39;6.15;;;2.85;;
15929;SDS011;8064;51.142;4.780;2022-08-11T10:07:06;7.47;;;2.53;;
15929;SDS011;8064;51.142;4.780;2022-08-11T10:09:36;3.83;;;2.78;;
15929;SDS011;8064;51.142;4.780;2022-08-11T10:12:05;4.68;;;2.92;;
15929;SDS011;8064;51.142;4.780;2022-08-11T10:21:09;2.75;;;2.55;;
15929;SDS011;8064;51.142;4.780;2022-08-11T10:23:38;3.28;;;2.58;;
15929;SDS011;8064;51.142;4.780;2022-08-11T10:26:23;2.60;;;2.40;;
15929;SDS011;8064;51.142;4.780;2022-08-11T10:29:10;4.22;;;2.70;;
15929;SDS011;8064;51.142;4.780;2022-08-11T10:31:56;6.60;;;2.70;;
15929;SDS011;8064;51.142;4.780;2022-08-11T10:34:42;4.45;;;2.78;;
15929;SDS011;8064;51.142;4.780;2022-08-11T10:37:09;2.72;;;2.50;;
15929;SDS011;8064;51.142;4.780;2022-08-11T10:39:36;6.15;;;2.90;;
15929;SDS011;8064;51.142;4.780;2022-08-11T10:42:03;12.23;;;2.85;;
15929;SDS011;8064;51.142;4.780;2022-08-11T10:44:50;5.03;;;2.50;;
15929;SDS011;8064;51.142;4.780;2022-08-11T10:47:18;4.30;;;2.55;;
15929;SDS011;8064;51.142;4.780;2022-08-11T10:50:03;5.20;;;2.55;;
15929;SDS011;8064;51.142;4.780;2022-08-11T10:52:53;5.20;;;2.55;;
15929;SDS011;8064;51.142;4.780;2022-08-11T10:55:41;4.82;;;2.83;;
15929;SDS011;8064;51.142;4.780;2022-08-11T10:58:27;5.85;;;2.95;;
15929;SDS011;8064;51.142;4.780;2022-08-11T11:01:14;3.38;;;2.72;;
15929;SDS011;8064;51.142;4.780;2022-08-11T11:03:46;5.40;;;2.80;;
15929;SDS011;8064;51.142;4.780;2022-08-11T11:09:30;4.78;;;2.22;;
15929;SDS011;8064;51.142;4.780;2022-08-11T11:12:00;6.38;;;2.70;;
15929;SDS011;8064;51.142;4.780;2022-08-11T11:15:03;6.65;;;2.67;;
15929;SDS011;8064;51.142;4.780;2022-08-11T11:17:51;3.45;;;2.88;;
15929;SDS011;8064;51.142;4.780;2022-08-11T11:25:51;3.00;;;2.65;;
15929;SDS011;8064;51.142;4.780;2022-08-11T11:39:30;4.03;;;2.28;;
15929;SDS011;8064;51.142;4.780;2022-08-11T11:41:58;3.80;;;2.50;;
15929;SDS011;8064;51.142;4.780;2022-08-11T11:44:28;6.25;;;2.55;;
15929;SDS011;8064;51.142;4.780;2022-08-11T11:46:57;5.10;;;2.75;;
15929;SDS011;8064;51.142;4.780;2022-08-11T11:49:26;4.40;;;2.60;;
15929;SDS011;8064;51.142;4.780;2022-08-11T11:51:52;6.82;;;3.17;;
15929;SDS011;8064;51.142;4.780;2022-08-11T11:54:21;4.97;;;2.10;;
15929;SDS011;8064;51.142;4.780;2022-08-11T11:56:49;3.00;;;2.17;;
15929;SDS011;8064;51.142;4.780;2022-08-11T11:59:19;4.53;;;2.40;;
15929;SDS011;8064;51.142;4.780;2022-08-11T12:02:06;2.17;;;1.98;;
15929;SDS011;8064;51.142;4.780;2022-08-11T12:04:34;4.35;;;2.55;;
15929;SDS011;8064;51.142;4.780;2022-08-11T12:07:02;4.07;;;2.00;;
15929;SDS011;8064;51.142;4.780;2022-08-11T12:09:48;3.42;;;2.13;;
15929;SDS011;8064;51.142;4.780;2022-08-11T12:12:14;3.20;;;2.63;;
15929;SDS011;8064;51.142;4.780;2022-08-11T12:14:58;3.75;;;2.35;;
15929;SDS011;8064;51.142;4.780;2022-08-11T12:17:25;2.42;;;2.22;;
15929;SDS011;8064;51.142;4.780;2022-08-11T12:19:51;5.43;;;2.83;;
15929;SDS011;8064;51.142;4.780;2022-08-11T12:22:17;5.53;;;2.40;;
15929;SDS011;8064;51.142;4.780;2022-08-11T12:25:02;6.72;;;2.30;;
15929;SDS011;8064;51.142;4.780;2022-08-11T12:27:47;4.30;;;2.33;;
15929;SDS011;8064;51.142;4.780;2022-08-11T12:30:13;6.75;;;2.13;;
15929;SDS011;8064;51.142;4.780;2022-08-11T12:32:40;4.32;;;2.10;;
15929;SDS011;8064;51.142;4.780;2022-08-11T12:35:07;2.72;;;2.10;;
15929;SDS011;8064;51.142;4.780;2022-08-11T12:40:13;3.55;;;2.75;;
15929;SDS011;8064;51.142;4.780;2022-08-11T12:43:02;4.45;;;2.10;;
15929;SDS011;8064;51.142;4.780;2022-08-11T12:45:54;5.40;;;2.42;;
15929;SDS011;8064;51.142;4.780;2022-08-11T12:48:24;3.97;;;2.15;;
15929;SDS011;8064;51.142;4.780;2022-08-11T12:51:15;3.78;;;2.30;;
15929;SDS011;8064;51.142;4.780;2022-08-11T12:56:48;9.93;;;2.47;;
15929;SDS011;8064;51.142;4.780;2022-08-11T12:59:38;3.33;;;2.25;;
15929;SDS011;8064;51.142;4.780;2022-08-11T13:02:23;5.03;;;2.67;;
15929;SDS011;8064;51.142;4.780;2022-08-11T13:05:11;3.35;;;2.30;;
15929;SDS011;8064;51.142;4.780;2022-08-11T13:07:39;5.57;;;2.75;;
15929;SDS011;8064;51.142;4.780;2022-08-11T13:10:08;5.25;;;2.33;;
15929;SDS011;8064;51.142;4.780;2022-08-11T13:12:36;4.72;;;2.53;;
15929;SDS011;8064;51.142;4.780;2022-08-11T13:15:19;3.25;;;2.47;;
15929;SDS011;8064;51.142;4.780;2022-08-11T13:17:48;3.35;;;2.40;;
15929;SDS011;8064;51.142;4.780;2022-08-11T13:20:18;5.78;;;2.45;;
15929;SDS011;8064;51.142;4.780;2022-08-11T13:22:47;3.38;;;2.40;;
15929;SDS011;8064;51.142;4.780;2022-08-11T13:25:16;4.72;;;2.60;;
15929;SDS011;8064;51.142;4.780;2022-08-11T13:27:43;2.65;;;2.25;;
15929;SDS011;8064;51.142;4.780;2022-08-11T13:30:10;2.45;;;2.25;;
15929;SDS011;8064;51.142;4.780;2022-08-11T13:32:56;2.53;;;2.17;;
15929;SDS011;8064;51.142;4.780;2022-08-11T13:35:23;2.80;;;1.98;;
15929;SDS011;8064;51.142;4.780;2022-08-11T13:37:51;2.78;;;2.10;;
15929;SDS011;8064;51.142;4.780;2022-08-11T13:40:19;5.20;;;2.42;;
15929;SDS011;8064;51.142;4.780;2022-08-11T13:42:45;2.83;;;2.25;;
15929;SDS011;8064;51.142;4.780;2022-08-11T13:45:13;6.70;;;2.50;;
15929;SDS011;8064;51.142;4.780;2022-08-11T13:47:40;5.10;;;2.40;;
15929;SDS011;8064;51.142;4.780;2022-08-11T13:50:07;2.63;;;2.22;;
15929;SDS011;8064;51.142;4.780;2022-08-11T13:52:34;2.60;;;2.20;;
15929;SDS011;8064;51.142;4.780;2022-08-11T13:55:03;6.63;;;2.45;;
15929;SDS011;8064;51.142;4.780;2022-08-11T13:57:30;3.67;;;2.17;;
15929;SDS011;8064;51.142;4.780;2022-08-11T13:59:57;3.10;;;2.13;;
15929;SDS011;8064;51.142;4.780;2022-08-11T14:02:35;2.20;;;1.98;;
15929;SDS011;8064;51.142;4.780;2022-08-11T14:05:07;4.13;;;2.47;;
15929;SDS011;8064;51.142;4.780;2022-08-11T14:07:41;7.90;;;2.42;;
15929;SDS011;8064;51.142;4.780;2022-08-11T14:10:29;4.75;;;2.92;;
15929;SDS011;8064;51.142;4.780;2022-08-11T14:16:00;3.97;;;2.28;;
15929;SDS011;8064;51.142;4.780;2022-08-11T14:18:31;4.20;;;2.03;;
15929;SDS011;8064;51.142;4.780;2022-08-11T14:20:59;3.03;;;2.13;;
15929;SDS011;8064;51.142;4.780;2022-08-11T14:23:47;3.25;;;2.00;;
15929;SDS011;8064;51.142;4.780;2022-08-11T14:26:15;3.50;;;2.10;;
15929;SDS011;8064;51.142;4.780;2022-08-11T14:28:57;6.60;;;2.20;;
15929;SDS011;8064;51.142;4.780;2022-08-11T14:31:27;5.35;;;1.80;;
15929;SDS011;8064;51.142;4.780;2022-08-11T14:33:56;2.88;;;2.10;;
15929;SDS011;8064;51.142;4.780;2022-08-11T14:36:27;2.40;;;2.20;;
15929;SDS011;8064;51.142;4.780;2022-08-11T14:38:58;4.00;;;2.42;;
15929;SDS011;8064;51.142;4.780;2022-08-11T14:41:28;3.70;;;2.20;;
15929;SDS011;8064;51.142;4.780;2022-08-11T14:44:09;3.30;;;2.00;;
15929;SDS011;8064;51.142;4.780;2022-08-11T14:46:55;2.55;;;2.17;;
15929;SDS011;8064;51.142;4.780;2022-08-11T14:49:41;4.65;;;1.90;;
15929;SDS011;8064;51.142;4.780;2022-08-11T14:52:09;6.72;;;2.33;;
15929;SDS011;8064;51.142;4.780;2022-08-11T14:54:55;4.82;;;2.40;;
15929;SDS011;8064;51.142;4.780;2022-08-11T14:57:40;3.17;;;2.17;;
15929;SDS011;8064;51.142;4.780;2022-08-11T15:00:07;3.70;;;2.20;;
15929;SDS011;8064;51.142;4.780;2022-08-11T15:02:39;4.53;;;1.83;;
15929;SDS011;8064;51.142;4.780;2022-08-11T15:05:25;4.10;;;2.40;;
15929;SDS011;8064;51.142;4.780;2022-08-11T15:07:53;5.10;;;2.15;;
15929;SDS011;8064;51.142;4.780;2022-08-11T15:10:20;4.00;;;2.05;;
15929;SDS011;8064;51.142;4.780;2022-08-11T15:12:47;4.32;;;2.17;;
15929;SDS011;8064;51.142;4.780;2022-08-11T15:15:13;2.67;;;2.10;;
15929;SDS011;8064;51.142;4.780;2022-08-11T15:17:59;4.15;;;2.15;;
15929;SDS011;8064;51.142;4.780;2022-08-11T15:20:29;2.88;;;2.17;;
15929;SDS011;8064;51.142;4.780;2022-08-11T15:23:14;5.55;;;2.40;;
15929;SDS011;8064;51.142;4.780;2022-08-11T15:26:02;4.15;;;1.92;;
15929;SDS011;8064;51.142;4.780;2022-08-11T15:28:30;2.50;;;1.90;;
15929;SDS011;8064;51.142;4.780;2022-08-11T15:31:20;4.97;;;2.20;;
15929;SDS011;8064;51.142;4.780;2022-08-11T15:34:05;3.10;;;2.30;;
15929;SDS011;8064;51.142;4.780;2022-08-11T15:36:54;3.65;;;2.13;;
15929;SDS011;8064;51.142;4.780;2022-08-11T15:39:44;2.70;;;1.90;;
15929;SDS011;8064;51.142;4.780;2022-08-11T15:42:29;2.42;;;2.00;;
15929;SDS011;8064;51.142;4.780;2022-08-11T15:45:16;5.07;;;1.95;;
15929;SDS011;8064;51.142;4.780;2022-08-11T15:48:06;4.07;;;2.13;;
15929;SDS011;8064;51.142;4.780;2022-08-11T15:50:38;2.53;;;2.08;;
15929;SDS011;8064;51.142;4.780;2022-08-11T15:53:17;6.00;;;2.33;;
15929;SDS011;8064;51.142;4.780;2022-08-11T15:55:49;8.25;;;2.42;;
15929;SDS011;8064;51.142;4.780;2022-08-11T15:58:17;5.10;;;2.50;;
15929;SDS011;8064;51.142;4.780;2022-08-11T16:01:04;6.65;;;2.45;;
15929;SDS011;8064;51.142;4.780;2022-08-11T16:03:51;3.83;;;2.10;;
15929;SDS011;8064;51.142;4.780;2022-08-11T16:09:21;6.90;;;2.33;;
15929;SDS011;8064;51.142;4.780;2022-08-11T16:11:53;2.67;;;2.47;;
15929;SDS011;8064;51.142;4.780;2022-08-11T16:14:21;4.35;;;2.38;;
15929;SDS011;8064;51.142;4.780;2022-08-11T16:17:07;2.58;;;2.08;;
15929;SDS011;8064;51.142;4.780;2022-08-11T16:19:36;5.00;;;2.47;;
15929;SDS011;8064;51.142;4.780;2022-08-11T16:22:06;3.20;;;2.28;;
15929;SDS011;8064;51.142;4.780;2022-08-11T16:24:35;3.90;;;2.55;;
15929;SDS011;8064;51.142;4.780;2022-08-11T16:27:03;4.25;;;2.63;;
15929;SDS011;8064;51.142;4.780;2022-08-11T16:29:31;4.70;;;2.15;;
15929;SDS011;8064;51.142;4.780;2022-08-11T16:32:02;3.67;;;2.28;;
15929;SDS011;8064;51.142;4.780;2022-08-11T16:37:53;5.05;;;1.85;;
15929;SDS011;8064;51.142;4.780;2022-08-11T16:40:39;3.58;;;2.00;;
15929;SDS011;8064;51.142;4.780;2022-08-11T16:43:07;5.22;;;2.55;;
15929;SDS011;8064;51.142;4.780;2022-08-11T16:45:56;7.47;;;2.35;;
15929;SDS011;8064;51.142;4.780;2022-08-11T16:48:41;3.92;;;2.20;;
15929;SDS011;8064;51.142;4.780;2022-08-11T16:51:12;4.93;;;2.35;;
15929;SDS011;8064;51.142;4.780;2022-08-11T16:53:38;4.03;;;2.40;;
15929;SDS011;8064;51.142;4.780;2022-08-11T16:56:06;7.15;;;2.53;;
15929;SDS011;8064;51.142;4.780;2022-08-11T16:58:33;3.35;;;2.40;;
15929;SDS011;8064;51.142;4.780;2022-08-11T17:01:20;4.45;;;2.13;;
15929;SDS011;8064;51.142;4.780;2022-08-11T17:03:50;2.75;;;2.15;;
15929;SDS011;8064;51.142;4.780;2022-08-11T17:06:40;3.97;;;2.30;;
15929;SDS011;8064;51.142;4.780;2022-08-11T17:09:27;3.97;;;2.22;;
15929;SDS011;8064;51.142;4.780;2022-08-11T17:12:15;3.78;;;2.20;;
15929;SDS011;8064;51.142;4.780;2022-08-11T17:15:05;3.80;;;2.20;;
15929;SDS011;8064;51.142;4.780;2022-08-11T17:17:57;4.43;;;2.20;;
15929;SDS011;8064;51.142;4.780;2022-08-11T17:20:24;4.22;;;1.90;;
15929;SDS011;8064;51.142;4.780;2022-08-11T17:22:52;3.10;;;1.98;;
15929;SDS011;8064;51.142;4.780;2022-08-11T17:25:38;3.45;;;2.30;;
15929;SDS011;8064;51.142;4.780;2022-08-11T17:28:04;4.05;;;2.20;;
15929;SDS011;8064;51.142;4.780;2022-08-11T17:30:32;3.83;;;2.45;;
15929;SDS011;8064;51.142;4.780;2022-08-11T17:33:17;2.33;;;2.10;;
15929;SDS011;8064;51.142;4.780;2022-08-11T17:36:03;4.47;;;2.38;;
15929;SDS011;8064;51.142;4.780;2022-08-11T17:38:29;4.03;;;2.08;;
15929;SDS011;8064;51.142;4.780;2022-08-11T17:40:59;4.15;;;2.55;;
15929;SDS011;8064;51.142;4.780;2022-08-11T17:43:45;7.35;;;2.50;;
15929;SDS011;8064;51.142;4.780;2022-08-11T17:46:30;2.72;;;2.08;;
15929;SDS011;8064;51.142;4.780;2022-08-11T17:49:16;2.70;;;2.22;;
15929;SDS011;8064;51.142;4.780;2022-08-11T17:51:44;3.75;;;2.17;;
15929;SDS011;8064;51.142;4.780;2022-08-11T17:54:32;3.05;;;2.50;;
15929;SDS011;8064;51.142;4.780;2022-08-11T17:57:18;2.50;;;2.10;;
15929;SDS011;8064;51.142;4.780;2022-08-11T18:00:05;7.32;;;2.58;;
15929;SDS011;8064;51.142;4.780;2022-08-11T18:05:19;8.90;;;2.53;;
15929;SDS011;8064;51.142;4.780;2022-08-11T18:07:50;4.05;;;2.30;;
15929;SDS011;8064;51.142;4.780;2022-08-11T18:10:38;3.53;;;2.20;;
15929;SDS011;8064;51.142;4.780;2022-08-11T18:13:24;4.05;;;2.38;;
15929;SDS011;8064;51.142;4.780;2022-08-11T18:16:11;5.45;;;2.58;;
15929;SDS011;8064;51.142;4.780;2022-08-11T18:18:55;4.28;;;2.30;;
15929;SDS011;8064;51.142;4.780;2022-08-11T18:21:41;5.25;;;2.38;;
15929;SDS011;8064;51.142;4.780;2022-08-11T18:24:27;4.03;;;2.42;;
15929;SDS011;8064;51.142;4.780;2022-08-11T18:27:14;4.35;;;2.53;;
15929;SDS011;8064;51.142;4.780;2022-08-11T18:30:01;6.53;;;2.80;;
15929;SDS011;8064;51.142;4.780;2022-08-11T18:32:47;6.28;;;2.67;;
15929;SDS011;8064;51.142;4.780;2022-08-11T18:35:33;4.80;;;2.30;;
15929;SDS011;8064;51.142;4.780;2022-08-11T18:38:19;3.22;;;2.40;;
15929;SDS011;8064;51.142;4.780;2022-08-11T18:41:05;5.05;;;2.50;;
15929;SDS011;8064;51.142;4.780;2022-08-11T18:43:52;6.40;;;2.45;;
15929;SDS011;8064;51.142;4.780;2022-08-11T18:46:41;3.65;;;2.40;;
15929;SDS011;8064;51.142;4.780;2022-08-11T18:49:29;5.55;;;2.53;;
15929;SDS011;8064;51.142;4.780;2022-08-11T18:52:17;5.80;;;2.42;;
15929;SDS011;8064;51.142;4.780;2022-08-11T18:55:02;2.95;;;2.65;;
15929;SDS011;8064;51.142;4.780;2022-08-11T18:57:49;8.32;;;2.53;;
15929;SDS011;8064;51.142;4.780;2022-08-11T19:00:36;6.57;;;2.70;;
15929;SDS011;8064;51.142;4.780;2022-08-11T19:03:21;3.92;;;2.40;;
15929;SDS011;8064;51.142;4.780;2022-08-11T19:06:08;6.50;;;2.70;;
15929;SDS011;8064;51.142;4.780;2022-08-11T19:08:56;2.88;;;2.53;;
15929;SDS011;8064;51.142;4.780;2022-08-11T19:11:42;4.43;;;2.28;;
15929;SDS011;8064;51.142;4.780;2022-08-11T19:14:29;5.65;;;2.40;;
15929;SDS011;8064;51.142;4.780;2022-08-11T19:17:14;6.22;;;2.90;;
15929;SDS011;8064;51.142;4.780;2022-08-11T19:20:00;7.95;;;2.63;;
15929;SDS011;8064;51.142;4.780;2022-08-11T19:22:48;4.18;;;2.30;;
15929;SDS011;8064;51.142;4.780;2022-08-11T19:25:37;4.50;;;2.75;;
15929;SDS011;8064;51.142;4.780;2022-08-11T19:28:23;7.30;;;2.50;;
15929;SDS011;8064;51.142;4.780;2022-08-11T19:31:08;2.85;;;2.28;;
15929;SDS011;8064;51.142;4.780;2022-08-11T19:33:54;4.38;;;2.45;;
15929;SDS011;8064;51.142;4.780;2022-08-11T19:36:40;3.22;;;2.65;;
15929;SDS011;8064;51.142;4.780;2022-08-11T19:39:26;7.25;;;2.70;;
15929;SDS011;8064;51.142;4.780;2022-08-11T19:42:12;5.03;;;2.45;;
15929;SDS011;8064;51.142;4.780;2022-08-11T19:44:59;4.75;;;2.70;;
15929;SDS011;8064;51.142;4.780;2022-08-11T19:47:45;3.28;;;2.42;;
15929;SDS011;8064;51.142;4.780;2022-08-11T19:50:31;5.05;;;2.53;;
15929;SDS011;8064;51.142;4.780;2022-08-11T19:53:16;3.55;;;2.40;;
15929;SDS011;8064;51.142;4.780;2022-08-11T19:56:02;4.65;;;2.83;;
15929;SDS011;8064;51.142;4.780;2022-08-11T19:58:48;6.07;;;2.67;;
15929;SDS011;8064;51.142;4.780;2022-08-11T20:01:33;3.35;;;2.40;;
15929;SDS011;8064;51.142;4.780;2022-08-11T20:04:17;4.03;;;2.53;;
15929;SDS011;8064;51.142;4.780;2022-08-11T20:07:02;6.68;;;2.80;;
15929;SDS011;8064;51.142;4.780;2022-08-11T20:09:47;10.18;;;2.40;;
15929;SDS011;8064;51.142;4.780;2022-08-11T20:12:32;3.47;;;2.20;;
15929;SDS011;8064;51.142;4.780;2022-08-11T20:15:18;3.88;;;2.78;;
15929;SDS011;8064;51.142;4.780;2022-08-11T20:18:05;2.78;;;2.30;;
15929;SDS011;8064;51.142;4.780;2022-08-11T20:20:53;5.75;;;2.65;;
15929;SDS011;8064;51.142;4.780;2022-08-11T20:23:41;4.93;;;2.55;;
15929;SDS011;8064;51.142;4.780;2022-08-11T20:26:28;6.18;;;2.33;;
15929;SDS011;8064;51.142;4.780;2022-08-11T20:29:13;5.45;;;2.55;;
15929;SDS011;8064;51.142;4.780;2022-08-11T20:31:58;4.50;;;2.10;;
15929;SDS011;8064;51.142;4.780;2022-08-11T20:34:43;3.72;;;2.72;;
15929;SDS011;8064;51.142;4.780;2022-08-11T20:37:29;5.68;;;2.42;;
15929;SDS011;8064;51.142;4.780;2022-08-11T20:40:14;4.32;;;2.50;;
15929;SDS011;8064;51.142;4.780;2022-08-11T20:43:03;6.57;;;2.35;;
15929;SDS011;8064;51.142;4.780;2022-08-11T20:45:50;9.40;;;2.53;;
15929;SDS011;8064;51.142;4.780;2022-08-11T20:48:36;5.03;;;2.45;;
15929;SDS011;8064;51.142;4.780;2022-08-11T20:51:22;5.13;;;2.30;;
15929;SDS011;8064;51.142;4.780;2022-08-11T20:54:07;6.85;;;2.38;;